createdAt,value
2022-09-06T00:03:57.546Z,99.9
2022-09-06T00:06:00.489Z,99.9
2022-09-06T00:08:03.484Z,99.9
2022-09-06T00:10:09.631Z,99.9
2022-09-06T00:12:12.609Z,99.9
2022-09-06T00:16:18.673Z,99.9
2022-09-06T00:18:21.682Z,99.9
2022-09-06T00:22:27.583Z,99.9
2022-09-06T00:24:33.692Z,99.9
2022-09-06T00:26:36.692Z,99.9
2022-09-06T00:28:39.700Z,99.9
2022-09-06T00:30:42.772Z,99.9
2022-09-06T00:32:45.705Z,99.9
2022-09-06T00:34:48.688Z,99.9
2022-09-06T00:36:51.683Z,99.9
2022-09-06T00:38:57.826Z,99.9
2022-09-06T00:41:00.837Z,99.9
2022-09-06T00:43:03.827Z,99.9
2022-09-06T00:44:06.893Z,99.9
2022-09-06T00:46:09.927Z,99.9
2022-09-06T00:48:12.896Z,99.9
2022-09-06T00:50:15.886Z,99.9
2022-09-06T00:52:22.050Z,99.9
2022-09-06T00:56:28.050Z,99.9
2022-09-06T00:58:31.068Z,99.9
2022-09-06T01:00:34.061Z,99.9
2022-09-06T01:02:37.260Z,99.9
2022-09-06T01:04:40.067Z,99.9
2022-09-06T01:06:46.183Z,99.9
2022-09-06T01:08:49.179Z,99.9
2022-09-06T01:10:52.219Z,99.9
2022-09-06T01:14:58.217Z,99.9
2022-09-06T01:17:01.213Z,99.9
2022-09-06T01:25:16.348Z,99.9
2022-09-06T01:27:19.352Z,99.9
2022-09-06T01:29:22.370Z,99.9
2022-09-06T01:31:25.428Z,99.9
2022-09-06T01:33:28.346Z,99.9
2022-09-06T01:35:34.877Z,99.9
2022-09-06T01:37:37.457Z,99.9
2022-09-06T01:39:40.551Z,99.9
2022-09-06T01:42:46.544Z,99.9
2022-09-06T01:44:49.552Z,99.9
2022-09-06T01:46:52.567Z,99.9
2022-09-06T01:48:58.675Z,99.9
2022-09-06T02:01:16.737Z,99.9
2022-09-06T02:05:25.865Z,99.9
2022-09-06T02:07:28.898Z,99.9
2022-09-06T02:13:37.897Z,99.9
2022-09-06T02:17:47.086Z,99.9
2022-09-06T02:23:56.144Z,99.9
2022-09-06T02:25:59.151Z,99.9
2022-09-06T02:28:02.172Z,99.9
2022-09-06T02:36:17.373Z,99.9
2022-09-06T02:37:20.426Z,99.9
2022-09-06T02:39:23.490Z,99.9
2022-09-06T02:41:26.454Z,99.9
2022-09-06T02:43:29.472Z,99.9
2022-09-06T02:47:38.660Z,99.9
2022-09-06T02:49:41.684Z,99.9
2022-09-06T02:51:44.649Z,99.9
2022-09-06T02:53:47.655Z,99.9
2022-09-06T02:55:50.865Z,99.9
2022-09-06T02:57:53.730Z,99.9
2022-09-06T02:59:59.856Z,99.9
2022-09-06T03:02:02.924Z,99.9
2022-09-06T03:04:05.893Z,99.9
2022-09-06T03:06:08.905Z,99.9
2022-09-06T03:08:11.959Z,99.9
2022-09-06T03:10:14.976Z,99.9
2022-09-06T03:12:18.000Z,99.9
2022-09-06T03:14:24.134Z,99.9
2022-09-06T03:18:30.175Z,99.9
2022-09-06T03:20:36.991Z,99.9
2022-09-06T03:22:36.197Z,99.9
2022-09-06T03:24:39.211Z,99.9
2022-09-06T03:26:42.239Z,99.9
2022-09-06T03:28:48.370Z,99.9
2022-09-06T03:30:51.544Z,99.9
2022-09-06T03:37:26.821Z,99.9
2022-09-06T03:39:29.907Z,99.9
2022-09-06T03:41:35.976Z,99.9
2022-09-06T03:43:39.000Z,99.9
2022-09-06T03:45:42.069Z,99.9
2022-09-06T03:49:48.139Z,99.9
2022-09-06T04:00:06.304Z,99.9
2022-09-06T04:02:09.367Z,99.9
2022-09-06T04:08:18.432Z,99.9
2022-09-06T04:10:24.519Z,99.9
2022-09-06T04:12:27.548Z,99.9
2022-09-06T04:14:30.584Z,99.9
2022-09-06T04:16:33.647Z,99.9
2022-09-06T04:18:36.633Z,99.9
2022-09-06T04:22:42.693Z,99.9
2022-09-06T04:28:54.912Z,99.9
2022-09-06T04:29:57.989Z,99.9
2022-09-06T04:32:01.125Z,99.9
2022-09-06T04:34:04.044Z,99.9
2022-09-06T04:36:07.079Z,99.9
2022-09-06T04:40:16.261Z,99.9
2022-09-06T04:42:19.288Z,99.9
2022-09-06T04:44:22.317Z,99.9
2022-09-06T04:46:25.348Z,99.9
2022-09-06T04:48:28.551Z,99.9
2022-09-06T04:50:31.410Z,99.9
2022-09-06T04:52:37.564Z,99.9
2022-09-06T04:54:40.600Z,99.9
2022-09-06T04:58:46.655Z,99.9
2022-09-06T05:00:49.726Z,99.9
2022-09-06T05:02:52.708Z,99.9
2022-09-06T05:04:55.749Z,99.9
2022-09-06T05:09:06.526Z,99.9
2022-09-06T05:11:09.548Z,99.9
2022-09-06T05:13:12.598Z,99.9
2022-09-06T05:15:15.632Z,99.9
2022-09-06T05:17:18.673Z,99.9
2022-09-06T05:19:21.716Z,99.9
2022-09-06T05:21:27.848Z,99.9
2022-09-06T05:26:37.029Z,99.9
2022-09-06T05:28:40.068Z,99.9
2022-09-06T05:30:43.103Z,99.9
2022-09-06T05:32:46.130Z,99.9
2022-09-06T05:34:52.300Z,99.9
2022-09-06T05:36:55.333Z,99.9
2022-09-06T05:38:58.363Z,99.9
2022-09-06T05:41:01.405Z,99.9
2022-09-06T05:43:04.431Z,99.9
2022-09-06T05:47:10.495Z,99.9
2022-09-06T05:49:16.673Z,99.9
2022-09-06T05:51:19.711Z,99.9
2022-09-06T05:53:22.761Z,99.9
2022-09-06T05:55:25.761Z,99.9
2022-09-06T05:57:28.782Z,99.9
2022-09-06T05:59:31.818Z,99.9
2022-09-06T06:01:34.900Z,99.9
2022-09-06T06:03:41.004Z,99.9
2022-09-06T06:07:47.065Z,99.9
2022-09-06T06:09:50.108Z,99.9
2022-09-06T06:11:53.145Z,99.9
2022-09-06T06:13:56.170Z,99.9
2022-09-06T06:15:59.213Z,99.9
2022-09-06T06:20:08.382Z,99.9
2022-09-06T06:22:11.424Z,99.9
2022-09-06T06:25:17.535Z,99.9
2022-09-06T06:27:20.556Z,99.9
2022-09-06T06:29:23.600Z,99.9
2022-09-06T06:31:29.886Z,99.9
2022-09-06T06:33:32.785Z,99.9
2022-09-06T06:35:39.575Z,99.9
2022-09-06T06:37:38.831Z,99.9
2022-09-06T06:39:41.969Z,99.9
2022-09-06T06:41:44.907Z,99.9
2022-09-06T06:43:47.949Z,99.9
2022-09-06T06:45:54.179Z,99.9
2022-09-06T06:47:57.107Z,99.9
2022-09-06T06:50:00.213Z,99.9
2022-09-06T06:54:06.203Z,99.9
2022-09-06T06:58:12.236Z,99.9
2022-09-06T07:00:18.367Z,99.9
2022-09-06T07:02:21.483Z,99.9
2022-09-06T07:04:24.371Z,99.9
2022-09-06T07:08:30.370Z,99.9
2022-09-06T07:12:36.386Z,99.9
2022-09-06T07:14:42.470Z,99.9
2022-09-06T07:16:45.536Z,99.9
2022-09-06T07:18:48.442Z,99.9
2022-09-06T07:21:39.202Z,99.9
2022-09-06T07:25:23.608Z,99.9
2022-09-06T07:29:32.633Z,99.9
2022-09-06T07:33:38.513Z,99.9
2022-09-06T07:35:41.442Z,99.9
2022-09-06T07:37:44.350Z,99.9
2022-09-06T07:39:47.326Z,99.9
2022-09-06T07:41:53.345Z,99.9
2022-09-06T07:43:56.249Z,99.9
2022-09-06T07:45:59.163Z,99.9
2022-09-06T07:48:02.075Z,99.9
2022-09-06T07:54:30.076Z,98.1
2022-09-06T07:56:16.867Z,97.6
2022-09-06T07:58:19.728Z,98.4
2022-09-06T08:00:22.660Z,93.3
2022-09-06T08:02:25.532Z,93.4
2022-09-06T08:06:31.492Z,81.4
2022-09-06T08:08:59.897Z,84
2022-09-06T08:10:40.151Z,90.1
2022-09-06T08:14:45.855Z,95
2022-09-06T08:21:57.429Z,90.8
2022-09-06T08:26:06.279Z,94.3
2022-09-06T08:32:14.786Z,94.7
2022-09-06T08:34:17.603Z,83.5
2022-09-06T08:36:20.426Z,91.7
2022-09-06T08:38:26.402Z,76.2
2022-09-06T08:42:32.081Z,72.9
2022-09-06T08:44:57.828Z,67.6
2022-09-06T08:46:37.757Z,58.8
2022-09-06T08:48:40.485Z,58.6
2022-09-06T08:50:43.942Z,70.5
2022-09-06T08:53:13.117Z,69.5
2022-09-06T08:54:52.684Z,68
2022-09-06T08:56:55.493Z,72.4
2022-09-06T08:58:58.260Z,73.8
2022-09-06T09:01:01.191Z,73.8
2022-09-06T09:03:03.800Z,67
2022-09-06T09:05:06.570Z,67.9
2022-09-06T09:07:12.501Z,68.3
2022-09-06T09:09:15.266Z,67.8
2022-09-06T09:11:17.994Z,79.3
2022-09-06T09:12:20.956Z,70.2
2022-09-06T09:14:23.719Z,69.8
2022-09-06T09:16:26.562Z,61.6
2022-09-06T09:18:29.449Z,79
2022-09-06T09:20:35.119Z,87.4
2022-09-06T09:22:37.858Z,86.5
2022-09-06T09:24:40.605Z,93.4
2022-09-06T09:26:43.301Z,99.6
2022-09-06T09:28:46.059Z,99.2
2022-09-06T09:30:49.420Z,99.3
2022-09-06T09:32:51.507Z,99.4
2022-09-06T09:34:57.400Z,99.5
2022-09-06T09:39:02.845Z,98.5
2022-09-06T09:41:05.594Z,98.8
2022-09-06T09:43:08.303Z,98.8
2022-09-06T09:45:11.024Z,98.8
2022-09-06T09:47:13.737Z,99
2022-09-06T09:49:19.637Z,99.9
2022-09-06T09:51:26.516Z,99.9
2022-09-06T09:53:25.062Z,99.9
2022-09-06T09:55:27.784Z,99.1
2022-09-06T09:57:30.498Z,99.2
2022-09-06T09:59:33.202Z,99.2
2022-09-06T10:01:35.926Z,98.2
2022-09-06T10:07:47.230Z,97.2
2022-09-06T10:14:59.494Z,94.5
2022-09-06T10:17:04.212Z,94.2
2022-09-06T10:19:06.842Z,94.2
2022-09-06T10:21:10.120Z,88.4
2022-09-06T10:23:12.270Z,89
2022-09-06T10:25:15.008Z,89.5
2022-09-06T10:27:17.746Z,89.6
2022-09-06T10:29:20.458Z,77.6
2022-09-06T10:31:26.455Z,87.5
2022-09-06T10:33:29.119Z,91
2022-09-06T10:35:31.870Z,95.3
2022-09-06T10:37:34.613Z,91.3
2022-09-06T10:39:37.464Z,91.3
2022-09-06T10:41:40.136Z,91.5
2022-09-06T10:43:42.879Z,82.2
2022-09-06T10:45:48.840Z,91.2
2022-09-06T10:47:51.581Z,90.9
2022-09-06T10:49:54.346Z,91.2
2022-09-06T11:00:12.840Z,78.7
2022-09-06T11:02:15.620Z,78.6
2022-09-06T11:04:18.270Z,78
2022-09-06T11:06:45.152Z,81.4
2022-09-06T11:08:48.152Z,83.5
2022-09-06T11:10:50.546Z,76.2
2022-09-06T11:12:56.412Z,70.4
2022-09-06T11:14:59.113Z,68.1
2022-09-06T11:17:01.875Z,67.6
2022-09-06T11:19:04.531Z,63.6
2022-09-06T11:21:07.225Z,63.7
2022-09-06T11:23:09.939Z,63.5
2022-09-06T11:25:12.574Z,62.8
2022-09-06T11:27:18.178Z,57.8
2022-09-06T11:29:20.729Z,58.3
2022-09-06T11:33:25.990Z,59.8
2022-09-06T11:35:28.273Z,60.1
2022-09-06T11:37:30.801Z,60.2
2022-09-06T11:41:38.867Z,55.2
2022-09-06T11:47:46.241Z,51.9
2022-09-06T11:53:53.546Z,49.6
2022-09-06T11:55:59.048Z,49
2022-09-06T12:00:03.873Z,50.3
2022-09-06T12:01:06.592Z,58.2
2022-09-06T12:05:11.425Z,56.1
2022-09-06T12:07:13.854Z,52.1
2022-09-06T12:11:21.753Z,48.9
2022-09-06T12:13:24.146Z,48.4
2022-09-06T12:15:26.561Z,48.3
2022-09-06T12:17:28.962Z,47.6
2022-09-06T12:19:31.360Z,47.3
2022-09-06T12:21:33.749Z,47
2022-09-06T12:23:39.232Z,46.8
2022-09-06T12:25:41.624Z,47.3
2022-09-06T12:27:44.046Z,49.6
2022-09-06T12:29:46.476Z,49.9
2022-09-06T12:31:48.908Z,45.5
2022-09-06T12:33:51.283Z,44.5
2022-09-06T12:35:57.115Z,44.4
2022-09-06T12:44:06.298Z,46.5
2022-09-06T12:46:08.774Z,50.4
2022-09-06T12:48:11.082Z,52
2022-09-06T12:50:13.492Z,52.1
2022-09-06T12:52:18.995Z,51.3
2022-09-06T12:54:21.440Z,50.2
2022-09-06T12:56:23.876Z,53.7
2022-09-06T13:01:31.549Z,53.7
2022-09-06T13:03:33.908Z,48.3
2022-09-06T13:09:44.246Z,46.2
2022-09-06T13:13:49.034Z,43.7
2022-09-06T13:15:51.506Z,42.5
2022-09-06T13:17:53.753Z,41.6
2022-09-06T13:19:59.196Z,40.2
2022-09-06T13:22:01.545Z,40.1
2022-09-06T13:24:03.829Z,42.1
2022-09-06T13:26:06.145Z,42.5
2022-09-06T13:28:08.422Z,42.3
2022-09-06T13:30:10.695Z,42.7
2022-09-06T13:32:12.971Z,42.2
2022-09-06T13:34:18.332Z,41.7
2022-09-06T13:36:20.577Z,41.6
2022-09-06T13:38:22.905Z,41.3
2022-09-06T13:40:25.117Z,41.3
2022-09-06T13:42:27.354Z,41.3
2022-09-06T13:46:31.909Z,41.8
2022-09-06T13:52:41.771Z,39.3
2022-09-06T13:55:46.708Z,38.1
2022-09-06T13:57:48.963Z,37.2
2022-09-06T13:59:51.235Z,36.3
2022-09-06T14:01:59.509Z,35.9
2022-09-06T14:10:05.734Z,37.1
2022-09-06T14:14:10.264Z,35.1
2022-09-06T14:20:20.183Z,30.5
2022-09-06T14:22:22.446Z,28.5
2022-09-06T14:24:24.691Z,28.1
2022-09-06T14:30:34.520Z,27
2022-09-06T14:32:36.742Z,26.2
2022-09-06T14:34:38.937Z,25.3
2022-09-06T14:36:41.176Z,24.8
2022-09-06T14:38:43.338Z,24.7
2022-09-06T14:40:45.539Z,24.3
2022-09-06T14:42:50.432Z,24.5
2022-09-06T14:44:53.072Z,25.6
2022-09-06T14:46:55.260Z,25.7
2022-09-06T14:48:57.459Z,26
2022-09-06T14:51:20.270Z,25.6
2022-09-06T14:57:30.006Z,25.5
2022-09-06T14:59:32.202Z,25.1
2022-09-06T15:01:38.395Z,24.5
2022-09-06T15:07:41.110Z,25.3
2022-09-06T15:09:43.350Z,25.5
2022-09-06T15:11:48.708Z,26
2022-09-06T15:13:50.970Z,26.2
2022-09-06T15:19:57.709Z,25.5
2022-09-06T15:21:59.976Z,25.2
2022-09-06T15:24:02.258Z,24.8
2022-09-06T15:26:07.610Z,24.4
2022-09-06T15:28:09.887Z,24.4
2022-09-06T15:30:12.172Z,24.7
2022-09-06T15:32:14.453Z,25
2022-09-06T15:34:16.769Z,25.4
2022-09-06T15:36:18.994Z,25.8
2022-09-06T15:38:21.267Z,26.3
2022-09-06T15:40:26.658Z,26.9
2022-09-06T15:42:28.938Z,27.2
2022-09-06T15:44:31.244Z,27.7
2022-09-06T15:47:36.240Z,28.5
2022-09-06T15:49:38.609Z,29
2022-09-06T15:57:51.107Z,30.3
2022-09-06T15:59:53.490Z,30.4
2022-09-06T16:01:55.940Z,31.5
2022-09-06T16:03:58.291Z,31.4
2022-09-06T16:06:28.732Z,31.3
2022-09-06T16:08:06.194Z,30.7
2022-09-06T16:10:08.620Z,30.3
2022-09-06T16:12:11.040Z,30
2022-09-06T16:14:13.476Z,30.1
2022-09-06T16:16:15.958Z,31.2
2022-09-06T16:22:26.567Z,37.3
2022-09-06T16:28:34.332Z,39.6
2022-09-06T16:30:36.981Z,41.1
2022-09-06T16:32:39.590Z,45.3
2022-09-06T16:34:42.244Z,47.5
2022-09-06T16:36:48.080Z,51.2
2022-09-06T16:38:50.755Z,52.8
2022-09-06T16:40:53.420Z,55.2
2022-09-06T16:41:56.355Z,55.1
2022-09-06T16:43:59.065Z,55.7
2022-09-06T16:46:01.837Z,56.4
2022-09-06T16:48:04.487Z,58.5
2022-09-06T16:50:10.389Z,63.8
2022-09-06T16:52:14.689Z,65
2022-09-06T16:54:17.378Z,68.4
2022-09-06T16:58:22.927Z,73
2022-09-06T17:00:25.637Z,73.7
2022-09-06T17:04:34.347Z,80.6
2022-09-06T17:10:42.706Z,86.8
2022-09-06T17:12:45.527Z,86.5
2022-09-06T17:14:48.311Z,86.5
2022-09-06T17:16:51.204Z,87
2022-09-06T17:18:57.128Z,89.3
2022-09-06T17:20:59.927Z,89.5
2022-09-06T17:23:02.762Z,90.8
2022-09-06T17:25:05.580Z,91.6
2022-09-06T17:27:08.403Z,92.4
2022-09-06T17:29:11.239Z,93.7
2022-09-06T17:31:14.112Z,94.3
2022-09-06T17:33:20.114Z,95.8
2022-09-06T17:35:22.932Z,96.8
2022-09-06T17:37:25.753Z,97.7
2022-09-06T17:38:28.909Z,98.2
2022-09-06T17:40:31.646Z,98.7
2022-09-06T17:42:34.526Z,99.2
2022-09-06T17:44:37.356Z,99.4
2022-09-06T17:46:56.943Z,99.9
2022-09-06T17:48:46.231Z,99.9
2022-09-06T17:50:49.103Z,99.9
2022-09-06T17:52:51.949Z,99.9
2022-09-06T17:54:54.824Z,99.9
2022-09-06T17:56:57.688Z,99.9
2022-09-06T17:59:00.570Z,99.9
2022-09-06T18:01:06.611Z,99.9
2022-09-06T18:03:09.463Z,99.9
2022-09-06T18:05:12.399Z,99.9
2022-09-06T18:07:15.232Z,99.9
2022-09-06T18:09:18.120Z,99.9
2022-09-06T18:11:20.996Z,99.9
2022-09-06T18:13:23.873Z,99.9
2022-09-06T18:15:29.902Z,99.9
2022-09-06T18:17:32.805Z,99.9
2022-09-06T18:19:35.695Z,99.9
2022-09-06T18:21:38.588Z,99.9
2022-09-06T18:23:41.485Z,99.9
2022-09-06T18:25:44.379Z,99.9
2022-09-06T18:27:47.292Z,99.9
2022-09-06T18:29:53.606Z,99.9
2022-09-06T18:31:56.570Z,99.9
2022-09-06T18:33:59.414Z,99.9
2022-09-06T18:36:22.686Z,99.9
2022-09-06T18:38:25.671Z,99.9
2022-09-06T18:40:28.519Z,99.9
2022-09-06T18:44:37.413Z,99.9
2022-09-06T18:48:43.196Z,99.9
2022-09-06T18:54:51.831Z,99.9
2022-09-06T18:56:57.862Z,99.9
2022-09-06T19:01:03.689Z,99.9
2022-09-06T19:03:06.537Z,99.9
2022-09-06T19:05:09.390Z,99.9
2022-09-06T19:07:12.281Z,99.9
2022-09-06T19:09:15.162Z,99.9
2022-09-06T19:11:21.184Z,99.9
2022-09-06T19:13:24.062Z,99.9
2022-09-06T19:15:26.947Z,99.9
2022-09-06T19:17:29.846Z,99.9
2022-09-06T19:19:32.726Z,99.9
2022-09-06T19:21:40.792Z,99.9
2022-09-06T19:23:38.498Z,99.9
2022-09-06T19:25:44.545Z,99.9
2022-09-06T19:27:48.954Z,99.9
2022-09-06T19:32:56.237Z,99.9
2022-09-06T19:34:59.122Z,99.9
2022-09-06T19:37:02.017Z,99.9
2022-09-06T19:39:08.238Z,99.9
2022-09-06T19:41:10.950Z,99.9
2022-09-06T19:43:13.858Z,99.9
2022-09-06T19:45:16.763Z,99.9
2022-09-06T19:47:19.658Z,99.9
2022-09-06T19:51:25.499Z,99.9
2022-09-06T19:53:31.556Z,99.9
2022-09-06T19:55:34.442Z,99.9
2022-09-06T19:57:37.382Z,99.9
2022-09-06T19:59:40.298Z,99.9
2022-09-06T20:01:43.303Z,99.9
2022-09-06T20:03:46.171Z,99.9
2022-09-06T20:05:49.091Z,99.9
2022-09-06T20:12:01.027Z,99.9
2022-09-06T20:14:03.957Z,99.9
2022-09-06T20:16:06.955Z,99.9
2022-09-06T20:26:25.060Z,99.9
2022-09-06T20:27:27.761Z,99.9
2022-09-06T20:29:30.700Z,99.9
2022-09-06T20:31:33.747Z,99.9
2022-09-06T20:33:36.608Z,99.9
2022-09-06T20:39:48.665Z,99.9
2022-09-06T20:45:57.448Z,99.9
2022-09-06T20:48:00.402Z,99.9
2022-09-06T20:52:09.440Z,99.9
2022-09-06T20:56:15.370Z,99.9
2022-09-06T21:02:24.290Z,99.9
2022-09-06T21:04:30.339Z,99.9
2022-09-06T21:08:40.570Z,99.9
2022-09-06T21:10:39.253Z,99.9
2022-09-06T21:14:45.572Z,99.9
2022-09-06T21:18:54.664Z,99.9
2022-09-06T21:20:57.654Z,99.9
2022-09-06T21:23:00.647Z,99.9
2022-09-06T21:24:03.713Z,99.9
2022-09-06T21:26:06.686Z,99.9
2022-09-06T21:28:09.671Z,99.9
2022-09-06T21:30:12.666Z,99.9
2022-09-06T21:32:18.765Z,99.9
2022-09-06T21:34:21.766Z,99.9
2022-09-06T21:36:24.772Z,99.9
2022-09-06T21:38:27.760Z,99.9
2022-09-06T21:40:30.778Z,99.9
2022-09-06T21:42:33.769Z,99.9
2022-09-06T21:44:36.817Z,99.9
2022-09-06T21:46:43.015Z,99.9
2022-09-06T21:48:45.922Z,99.9
2022-09-06T21:50:48.921Z,99.9
2022-09-06T21:52:51.939Z,99.9
2022-09-06T21:54:54.959Z,99.9
2022-09-06T21:56:57.940Z,99.9
2022-09-06T21:59:00.968Z,99.9
2022-09-06T22:01:07.132Z,99.9
2022-09-06T22:05:13.088Z,99.9
2022-09-06T22:07:16.125Z,99.9
2022-09-06T22:09:19.121Z,99.9
2022-09-06T22:11:22.145Z,99.9
2022-09-06T22:13:25.138Z,99.9
2022-09-06T22:15:31.281Z,99.9
2022-09-06T22:17:34.271Z,99.9
2022-09-06T22:19:37.302Z,99.9
2022-09-06T22:22:06.720Z,99.9
2022-09-06T22:24:09.721Z,99.9
2022-09-06T22:32:24.873Z,99.9
2022-09-06T22:36:30.909Z,99.9
2022-09-06T22:38:33.922Z,99.9
2022-09-06T22:42:43.045Z,99.9
2022-09-06T22:44:46.072Z,99.9
2022-09-06T22:46:50.774Z,99.9
2022-09-06T22:48:53.608Z,99.9
2022-09-06T22:50:56.642Z,99.9
2022-09-06T22:52:59.657Z,99.9
2022-09-06T22:57:08.795Z,99.9
2022-09-06T23:01:14.870Z,99.9
2022-09-06T23:07:23.870Z,99.9
2022-09-06T23:09:26.896Z,99.9
2022-09-06T23:11:33.011Z,99.9
2022-09-06T23:13:36.033Z,99.9
2022-09-06T23:15:39.032Z,99.9
2022-09-06T23:16:42.112Z,99.9
2022-09-06T23:18:45.127Z,99.9
2022-09-06T23:22:51.137Z,99.9
2022-09-06T23:24:57.274Z,99.9
2022-09-06T23:27:00.298Z,99.9
2022-09-06T23:29:03.341Z,99.9
2022-09-06T23:31:06.361Z,99.9
2022-09-06T23:33:09.373Z,99.9
2022-09-06T23:35:12.389Z,99.9
2022-09-06T23:37:15.422Z,99.9
2022-09-06T23:41:24.603Z,99.9
2022-09-06T23:45:30.669Z,99.9
2022-09-06T23:47:33.720Z,99.9
2022-09-06T23:49:36.735Z,99.9
2022-09-06T23:53:45.951Z,99.9
2022-09-06T23:55:48.984Z,99.9
2022-09-06T23:59:55.070Z,99.9
